createdAt,value
2022-10-13T00:01:00.784Z,37.30
2022-10-13T00:02:34.395Z,37.27
2022-10-13T00:04:08.103Z,37.29
2022-10-13T00:05:43.636Z,37.51
2022-10-13T00:07:16.873Z,37.70
2022-10-13T00:08:50.952Z,37.66
2022-10-13T00:10:25.169Z,38.00
2022-10-13T00:11:59.269Z,37.86
2022-10-13T00:13:32.614Z,37.82
2022-10-13T00:15:08.406Z,38.15
2022-10-13T00:16:41.658Z,38.20
2022-10-13T00:18:16.582Z,38.38
2022-10-13T00:19:50.375Z,38.36
2022-10-13T00:21:26.838Z,38.42
2022-10-13T00:23:00.428Z,38.60
2022-10-13T00:24:33.772Z,38.69
2022-10-13T00:26:09.589Z,38.92
2022-10-13T00:27:42.665Z,38.64
2022-10-13T00:29:16.013Z,38.84
2022-10-13T00:30:49.232Z,38.86
2022-10-13T00:32:22.400Z,39.05
2022-10-13T00:33:56.586Z,39.11
2022-10-13T00:35:30.351Z,39.05
2022-10-13T00:37:05.466Z,39.08
2022-10-13T00:38:39.750Z,38.83
2022-10-13T00:40:13.350Z,38.87
2022-10-13T00:41:46.820Z,38.79
2022-10-13T00:43:27.393Z,38.83
2022-10-13T00:45:20.582Z,38.72
2022-10-13T00:46:55.609Z,38.87
2022-10-13T00:48:31.562Z,39.02
2022-10-13T00:50:08.079Z,38.68
2022-10-13T00:51:50.083Z,38.78
2022-10-13T00:53:27.731Z,38.86
2022-10-13T00:55:04.232Z,38.92
2022-10-13T00:56:39.733Z,39.10
2022-10-13T00:58:16.787Z,39.06
2022-10-13T00:59:50.596Z,38.95
2022-10-13T01:01:24.276Z,39.10
2022-10-13T01:02:58.195Z,39.13
2022-10-13T01:04:38.051Z,39.03
2022-10-13T01:06:13.287Z,39.33
2022-10-13T01:07:52.098Z,39.42
2022-10-13T01:09:25.730Z,39.38
2022-10-13T01:11:21.456Z,39.56
2022-10-13T01:13:36.609Z,39.40
2022-10-13T01:15:50.343Z,39.57
2022-10-13T01:18:01.662Z,39.53
2022-10-13T01:19:46.605Z,39.44
2022-10-13T01:21:42.501Z,39.26
2022-10-13T01:23:39.120Z,39.35
2022-10-13T01:25:47.898Z,39.37
2022-10-13T01:27:24.338Z,39.14
2022-10-13T01:29:28.508Z,39.26
2022-10-13T01:31:27.032Z,39.38
2022-10-13T01:33:03.238Z,39.25
2022-10-13T01:34:52.961Z,39.27
2022-10-13T01:36:41.698Z,39.20
2022-10-13T01:38:30.718Z,39.39
2022-10-13T01:40:28.454Z,39.31
2022-10-13T01:42:12.090Z,39.46
2022-10-13T01:43:54.599Z,39.62
2022-10-13T01:45:46.487Z,39.61
2022-10-13T01:47:21.076Z,39.51
2022-10-13T01:48:59.380Z,39.52
2022-10-13T01:50:36.863Z,39.44
2022-10-13T01:52:17.633Z,39.50
2022-10-13T01:53:52.211Z,39.54
2022-10-13T01:55:25.537Z,39.65
2022-10-13T01:56:59.025Z,39.72
2022-10-13T01:58:35.893Z,39.52
2022-10-13T02:00:18.195Z,39.41
2022-10-13T02:02:07.770Z,39.58
2022-10-13T02:03:57.531Z,39.47
2022-10-13T02:05:50.024Z,39.37
2022-10-13T02:07:35.809Z,39.65
2022-10-13T02:09:27.848Z,39.56
2022-10-13T02:11:17.551Z,39.58
2022-10-13T02:12:59.782Z,39.61
2022-10-13T02:14:36.973Z,39.65
2022-10-13T02:16:11.780Z,39.75
2022-10-13T02:17:45.729Z,39.87
2022-10-13T02:19:20.099Z,39.92
2022-10-13T02:20:55.707Z,40.03
2022-10-13T02:22:33.427Z,40.07
2022-10-13T02:24:09.535Z,40.11
2022-10-13T02:25:43.859Z,40.22
2022-10-13T02:27:17.707Z,40.36
2022-10-13T02:28:51.297Z,40.34
2022-10-13T02:30:27.956Z,40.39
2022-10-13T02:32:01.679Z,40.55
2022-10-13T02:33:35.551Z,40.83
2022-10-13T02:35:09.383Z,40.69
2022-10-13T02:36:43.252Z,40.75
2022-10-13T02:38:16.669Z,40.89
2022-10-13T02:39:50.197Z,40.85
2022-10-13T02:41:25.636Z,40.97
2022-10-13T02:42:59.208Z,41.02
2022-10-13T02:44:33.239Z,41.10
2022-10-13T02:46:06.626Z,41.29
2022-10-13T02:47:40.090Z,41.45
2022-10-13T02:49:13.850Z,41.55
2022-10-13T02:50:48.152Z,41.48
2022-10-13T02:52:21.841Z,41.57
2022-10-13T02:53:55.591Z,41.67
2022-10-13T02:55:29.122Z,41.52
2022-10-13T02:57:02.542Z,41.62
2022-10-13T02:58:36.298Z,41.80
2022-10-13T03:00:10.103Z,41.55
2022-10-13T03:01:45.113Z,41.62
2022-10-13T03:03:18.468Z,41.52
2022-10-13T03:04:53.560Z,41.98
2022-10-13T03:06:26.830Z,41.97
2022-10-13T03:08:00.414Z,42.52
2022-10-13T03:09:34.211Z,42.85
2022-10-13T03:11:08.007Z,42.96
2022-10-13T03:12:41.678Z,43.14
2022-10-13T03:14:14.994Z,43.20
2022-10-13T03:15:48.155Z,43.74
2022-10-13T03:17:21.278Z,44.24
2022-10-13T03:18:54.628Z,44.16
2022-10-13T03:20:28.030Z,44.03
2022-10-13T03:22:01.387Z,44.27
2022-10-13T03:23:35.101Z,44.53
2022-10-13T03:25:09.042Z,44.36
2022-10-13T03:26:43.905Z,44.19
2022-10-13T03:28:17.209Z,44.70
2022-10-13T03:29:52.415Z,44.74
2022-10-13T03:31:25.796Z,44.53
2022-10-13T03:33:07.053Z,45.18
2022-10-13T03:34:40.540Z,44.70
2022-10-13T03:36:14.178Z,44.83
2022-10-13T03:37:48.890Z,44.82
2022-10-13T03:39:22.562Z,44.77
2022-10-13T03:40:59.036Z,44.92
2022-10-13T03:42:33.078Z,44.97
2022-10-13T03:44:07.969Z,45.29
2022-10-13T03:45:41.498Z,45.00
2022-10-13T03:47:15.293Z,45.03
2022-10-13T03:48:49.089Z,44.83
2022-10-13T03:50:22.599Z,45.06
2022-10-13T03:51:55.936Z,45.18
2022-10-13T03:53:29.307Z,45.15
2022-10-13T03:55:02.820Z,45.15
2022-10-13T03:56:37.594Z,45.15
2022-10-13T03:58:11.146Z,45.31
2022-10-13T03:59:47.037Z,45.29
2022-10-13T04:01:25.660Z,45.24
2022-10-13T04:02:59.062Z,45.31
2022-10-13T04:04:32.668Z,45.95
2022-10-13T04:06:07.018Z,45.96
2022-10-13T04:07:40.502Z,45.88
2022-10-13T04:09:25.035Z,45.75
2022-10-13T04:11:03.147Z,45.96
2022-10-13T04:12:36.858Z,45.97
2022-10-13T04:14:12.810Z,46.10
2022-10-13T04:15:46.342Z,46.29
2022-10-13T04:17:19.717Z,46.69
2022-10-13T04:19:02.985Z,47.02
2022-10-13T04:20:40.995Z,47.01
2022-10-13T04:22:14.517Z,46.88
2022-10-13T04:23:58.426Z,47.32
2022-10-13T04:25:32.061Z,47.09
2022-10-13T04:27:06.754Z,47.61
2022-10-13T04:28:40.834Z,47.74
2022-10-13T04:30:15.721Z,47.67
2022-10-13T04:31:56.250Z,47.83
2022-10-13T04:33:30.153Z,48.35
2022-10-13T04:35:04.528Z,48.83
2022-10-13T04:36:39.253Z,48.89
2022-10-13T04:38:13.058Z,49.29
2022-10-13T04:39:47.266Z,49.58
2022-10-13T04:41:21.572Z,49.46
2022-10-13T04:42:55.133Z,49.55
2022-10-13T04:44:28.964Z,49.97
2022-10-13T04:46:13.227Z,50.08
2022-10-13T04:47:46.769Z,49.60
2022-10-13T04:49:20.358Z,49.51
2022-10-13T04:51:08.415Z,49.28
2022-10-13T04:53:00.680Z,49.61
2022-10-13T04:54:34.648Z,50.04
2022-10-13T04:56:11.605Z,49.93
2022-10-13T04:57:47.377Z,49.44
2022-10-13T04:59:21.159Z,49.89
2022-10-13T05:00:55.316Z,49.40
2022-10-13T05:02:29.573Z,49.53
2022-10-13T05:04:04.701Z,49.61
2022-10-13T05:05:42.692Z,49.76
2022-10-13T05:07:18.320Z,49.76
2022-10-13T05:08:55.226Z,49.20
2022-10-13T05:10:33.857Z,49.28
2022-10-13T05:12:08.206Z,48.97
2022-10-13T05:13:41.530Z,48.65
2022-10-13T05:15:15.735Z,48.74
2022-10-13T05:16:49.819Z,49.29
2022-10-13T05:18:24.537Z,50.21
2022-10-13T05:19:58.078Z,50.99
2022-10-13T05:21:31.841Z,51.91
2022-10-13T05:23:05.177Z,52.93
2022-10-13T05:24:38.828Z,54.56
2022-10-13T05:26:16.614Z,53.28
2022-10-13T05:27:50.097Z,54.06
2022-10-13T05:29:23.500Z,54.21
2022-10-13T05:30:57.538Z,55.26
2022-10-13T05:32:30.987Z,55.83
2022-10-13T05:34:04.692Z,56.41
2022-10-13T05:35:37.975Z,56.54
2022-10-13T05:37:10.993Z,56.04
2022-10-13T05:38:45.203Z,57.19
2022-10-13T05:40:18.556Z,58.21
2022-10-13T05:41:51.983Z,59.52
2022-10-13T05:43:28.392Z,60.98
2022-10-13T05:45:02.528Z,62.29
2022-10-13T05:46:37.222Z,63.01
2022-10-13T05:48:11.066Z,63.36
2022-10-13T05:49:44.964Z,65.15
2022-10-13T05:51:23.798Z,64.59
2022-10-13T05:52:58.064Z,64.48
2022-10-13T05:54:34.686Z,64.62
2022-10-13T05:56:15.365Z,62.41
2022-10-13T05:57:52.278Z,62.36
2022-10-13T05:59:28.761Z,63.17
2022-10-13T06:01:05.436Z,61.73
2022-10-13T06:02:57.117Z,61.10
2022-10-13T06:04:40.509Z,61.30
2022-10-13T06:06:14.156Z,60.61
2022-10-13T06:07:48.666Z,59.90
2022-10-13T06:09:22.816Z,57.78
2022-10-13T06:10:56.457Z,56.94
2022-10-13T06:12:30.061Z,57.26
2022-10-13T06:14:03.933Z,56.34
2022-10-13T06:15:37.367Z,55.85
2022-10-13T06:17:11.313Z,56.67
2022-10-13T06:18:49.855Z,57.46
2022-10-13T06:20:23.462Z,55.70
2022-10-13T06:22:00.023Z,55.54
2022-10-13T06:23:36.709Z,56.11
2022-10-13T06:25:10.281Z,55.70
2022-10-13T06:26:44.184Z,55.76
2022-10-13T06:28:19.580Z,56.33
2022-10-13T06:29:53.157Z,55.61
2022-10-13T06:31:26.584Z,56.59
2022-10-13T06:33:00.438Z,57.01
2022-10-13T06:34:34.277Z,55.55
2022-10-13T06:36:08.039Z,56.19
2022-10-13T06:37:41.360Z,57.87
2022-10-13T06:39:16.450Z,58.38
2022-10-13T06:40:50.643Z,59.43
2022-10-13T06:42:24.646Z,59.90
2022-10-13T06:44:14.769Z,58.46
2022-10-13T06:45:48.203Z,59.69
2022-10-13T06:47:21.798Z,60.14
2022-10-13T06:48:55.495Z,59.53
2022-10-13T06:50:32.503Z,60.08
2022-10-13T06:52:06.366Z,60.40
2022-10-13T06:53:40.702Z,61.11
2022-10-13T06:55:14.151Z,61.66
2022-10-13T06:56:47.190Z,61.79
2022-10-13T06:58:20.990Z,62.21
2022-10-13T06:59:54.664Z,62.92
2022-10-13T07:01:28.355Z,63.53
2022-10-13T07:03:01.707Z,64.05
2022-10-13T07:04:35.358Z,63.99
2022-10-13T07:06:08.992Z,64.92
2022-10-13T07:07:42.578Z,64.88
2022-10-13T07:09:15.832Z,65.64
2022-10-13T07:10:49.203Z,65.80
2022-10-13T07:12:23.136Z,65.80
2022-10-13T07:13:57.160Z,65.88
2022-10-13T07:15:30.945Z,65.54
2022-10-13T07:17:04.414Z,66.46
2022-10-13T07:18:38.276Z,66.66
2022-10-13T07:20:11.877Z,67.13
2022-10-13T07:21:45.004Z,67.03
2022-10-13T07:23:18.286Z,67.46
2022-10-13T07:24:51.905Z,67.49
2022-10-13T07:26:26.128Z,68.29
2022-10-13T07:28:00.677Z,68.42
2022-10-13T07:29:34.231Z,68.15
2022-10-13T07:31:11.508Z,68.79
2022-10-13T07:32:44.898Z,69.09
2022-10-13T07:34:18.161Z,69.64
2022-10-13T07:35:51.347Z,69.85
2022-10-13T07:37:25.285Z,70.26
2022-10-13T07:38:59.033Z,70.72
2022-10-13T07:40:32.587Z,71.12
2022-10-13T07:42:05.924Z,71.36
2022-10-13T07:43:39.860Z,72.05
2022-10-13T07:45:13.404Z,72.69
2022-10-13T07:46:46.754Z,73.08
2022-10-13T07:48:20.235Z,75.72
2022-10-13T07:49:55.222Z,75.70
2022-10-13T07:51:28.833Z,76.94
2022-10-13T07:53:02.678Z,79.14
2022-10-13T07:54:36.027Z,82.13
2022-10-13T07:56:13.050Z,84.48
2022-10-13T07:57:46.612Z,87.69
2022-10-13T07:59:20.276Z,89.77
2022-10-13T08:01:00.809Z,91.87
2022-10-13T08:02:35.358Z,92.54
2022-10-13T08:04:08.861Z,94.14
2022-10-13T08:05:42.113Z,94.97
2022-10-13T08:07:17.197Z,95.31
2022-10-13T08:08:55.141Z,96.79
2022-10-13T08:10:29.703Z,97.28
2022-10-13T08:12:02.779Z,98.47
2022-10-13T08:13:36.312Z,98.68
2022-10-13T08:15:27.790Z,98.73
2022-10-13T08:17:01.941Z,98.82
2022-10-13T08:18:35.064Z,98.90
2022-10-13T08:20:11.176Z,100.00
2022-10-13T08:22:02.265Z,99.69
2022-10-13T08:23:36.927Z,99.85
2022-10-13T08:25:10.527Z,100.00
2022-10-13T08:26:46.110Z,100.00
2022-10-13T08:28:24.324Z,100.00
2022-10-13T08:29:57.868Z,100.00
2022-10-13T08:31:31.364Z,100.00
2022-10-13T08:33:04.792Z,100.00
2022-10-13T08:34:38.226Z,100.00
2022-10-13T08:36:11.648Z,100.00
2022-10-13T08:37:45.099Z,100.00
2022-10-13T08:39:18.282Z,100.00
2022-10-13T08:40:52.187Z,100.00
2022-10-13T08:42:25.880Z,100.00
2022-10-13T08:46:02.499Z,100.00
2022-10-13T08:48:00.939Z,100.00
2022-10-13T08:49:34.661Z,100.00
2022-10-13T08:51:08.842Z,100.00
2022-10-13T08:53:01.398Z,100.00
2022-10-13T08:54:34.622Z,100.00
2022-10-13T08:56:19.364Z,100.00
2022-10-13T08:57:53.468Z,100.00
2022-10-13T08:59:32.293Z,100.00
2022-10-13T09:01:09.587Z,100.00
2022-10-13T09:02:44.500Z,100.00
2022-10-13T09:04:36.621Z,100.00
2022-10-13T09:06:18.281Z,100.00
2022-10-13T09:09:28.719Z,100.00
2022-10-13T09:11:03.560Z,100.00
2022-10-13T09:12:37.176Z,100.00
2022-10-13T09:14:14.054Z,100.00
2022-10-13T09:15:50.980Z,100.00
2022-10-13T09:17:29.398Z,100.00
2022-10-13T09:19:23.740Z,100.00
2022-10-13T09:21:26.156Z,100.00
2022-10-13T09:23:27.957Z,100.00
2022-10-13T09:25:08.471Z,100.00
2022-10-13T09:26:41.844Z,100.00
2022-10-13T09:28:21.487Z,100.00
2022-10-13T09:29:55.516Z,100.00
2022-10-13T09:31:32.689Z,100.00
2022-10-13T09:33:09.274Z,100.00
2022-10-13T09:34:43.420Z,100.00
2022-10-13T09:36:17.269Z,100.00
2022-10-13T09:38:06.444Z,100.00
2022-10-13T09:39:39.622Z,100.00
2022-10-13T09:41:21.374Z,100.00
2022-10-13T09:42:55.627Z,100.00
2022-10-13T09:44:34.090Z,100.00
2022-10-13T09:46:32.404Z,100.00
2022-10-13T09:48:17.252Z,100.00
2022-10-13T09:50:18.736Z,100.00
2022-10-13T09:51:53.218Z,100.00
2022-10-13T09:53:41.610Z,100.00
2022-10-13T09:55:36.272Z,100.00
2022-10-13T09:57:22.232Z,100.00
2022-10-13T09:59:33.694Z,100.00
2022-10-13T10:01:18.330Z,100.00
2022-10-13T10:02:58.506Z,100.00
2022-10-13T10:04:43.627Z,100.00
2022-10-13T10:06:17.519Z,100.00
2022-10-13T10:07:51.746Z,100.00
2022-10-13T10:09:37.514Z,100.00
2022-10-13T10:11:19.103Z,100.00
2022-10-13T10:12:53.158Z,100.00
2022-10-13T10:14:26.819Z,100.00
2022-10-13T10:16:12.295Z,100.00
2022-10-13T10:17:59.387Z,100.00
2022-10-13T10:19:53.040Z,100.00
2022-10-13T10:21:41.506Z,100.00
2022-10-13T10:23:47.305Z,100.00
2022-10-13T10:25:38.564Z,100.00
2022-10-13T10:27:44.909Z,100.00
2022-10-13T10:29:49.137Z,100.00
2022-10-13T10:31:41.476Z,100.00
2022-10-13T10:33:47.045Z,100.00
2022-10-13T10:35:48.730Z,100.00
2022-10-13T10:38:03.046Z,100.00
2022-10-13T10:39:52.692Z,100.00
2022-10-13T10:41:32.243Z,100.00
2022-10-13T10:43:28.104Z,100.00
2022-10-13T10:45:05.802Z,100.00
2022-10-13T10:46:47.434Z,100.00
2022-10-13T10:48:24.063Z,100.00
2022-10-13T10:50:07.047Z,100.00
2022-10-13T10:51:40.638Z,100.00
2022-10-13T10:53:39.989Z,100.00
2022-10-13T10:55:19.423Z,100.00
2022-10-13T10:57:03.851Z,100.00
2022-10-13T10:59:05.997Z,100.00
2022-10-13T11:00:51.701Z,100.00
2022-10-13T11:02:42.110Z,100.00
2022-10-13T11:04:47.548Z,100.00
2022-10-13T11:06:46.984Z,100.00
2022-10-13T11:08:47.709Z,100.00
2022-10-13T11:10:26.950Z,100.00
2022-10-13T11:12:00.543Z,100.00
2022-10-13T11:13:52.394Z,100.00
2022-10-13T11:15:33.591Z,100.00
2022-10-13T11:17:06.776Z,100.00
2022-10-13T11:18:55.377Z,100.00
2022-10-13T11:20:33.616Z,100.00
2022-10-13T11:22:07.013Z,100.00
2022-10-13T11:23:49.884Z,100.00
2022-10-13T11:25:46.339Z,100.00
2022-10-13T11:27:40.453Z,100.00
2022-10-13T11:29:20.470Z,100.00
2022-10-13T11:31:26.194Z,100.00
2022-10-13T11:33:00.446Z,100.00
2022-10-13T11:34:34.033Z,100.00
2022-10-13T11:36:32.299Z,100.00
2022-10-13T11:38:24.417Z,100.00
2022-10-13T11:40:23.265Z,100.00
2022-10-13T11:42:22.554Z,100.00
2022-10-13T11:44:04.826Z,100.00
2022-10-13T11:46:04.517Z,100.00
2022-10-13T11:47:54.703Z,100.00
2022-10-13T11:50:02.886Z,100.00
2022-10-13T11:52:00.958Z,100.00
2022-10-13T11:53:57.113Z,100.00
2022-10-13T11:55:56.793Z,100.00
2022-10-13T11:57:33.058Z,100.00
2022-10-13T11:59:33.292Z,100.00
2022-10-13T12:01:13.422Z,100.00
2022-10-13T12:02:53.654Z,100.00
2022-10-13T12:04:29.003Z,100.00
2022-10-13T12:06:32.573Z,100.00
2022-10-13T12:08:06.870Z,100.00
2022-10-13T12:09:55.812Z,100.00
2022-10-13T12:11:34.645Z,100.00
2022-10-13T12:13:08.169Z,100.00
2022-10-13T12:14:44.820Z,100.00
2022-10-13T12:16:20.038Z,100.00
2022-10-13T12:17:56.834Z,100.00
2022-10-13T12:19:32.530Z,100.00
2022-10-13T12:21:21.506Z,100.00
2022-10-13T12:22:56.266Z,100.00
2022-10-13T12:24:31.745Z,100.00
2022-10-13T12:26:05.867Z,100.00
2022-10-13T12:27:48.322Z,100.00
2022-10-13T12:29:27.699Z,100.00
2022-10-13T12:31:02.037Z,100.00
2022-10-13T12:32:38.348Z,100.00
2022-10-13T12:34:27.987Z,100.00
2022-10-13T12:36:35.439Z,100.00
2022-10-13T12:38:20.879Z,100.00
2022-10-13T12:39:56.256Z,100.00
2022-10-13T12:41:37.399Z,100.00
2022-10-13T12:43:17.126Z,100.00
2022-10-13T12:44:53.050Z,100.00
2022-10-13T12:46:44.298Z,100.00
2022-10-13T12:48:38.935Z,100.00
2022-10-13T12:50:30.919Z,100.00
2022-10-13T12:52:24.162Z,100.00
2022-10-13T12:53:58.661Z,100.00
2022-10-13T12:55:33.832Z,100.00
2022-10-13T12:57:21.610Z,100.00
2022-10-13T12:58:56.207Z,100.00
2022-10-13T13:00:31.663Z,100.00
2022-10-13T13:02:38.771Z,100.00
2022-10-13T13:04:21.638Z,100.00
2022-10-13T13:06:08.810Z,100.00
2022-10-13T13:07:53.051Z,100.00
2022-10-13T13:09:28.871Z,100.00
2022-10-13T13:11:05.908Z,100.00
2022-10-13T13:12:39.602Z,100.00
2022-10-13T13:14:40.226Z,100.00
2022-10-13T13:16:15.450Z,100.00
2022-10-13T13:18:04.318Z,100.00
2022-10-13T13:19:38.335Z,100.00
2022-10-13T13:21:19.995Z,100.00
2022-10-13T13:22:53.929Z,100.00
2022-10-13T13:24:35.963Z,100.00
2022-10-13T13:26:21.367Z,100.00
2022-10-13T13:27:55.616Z,100.00
2022-10-13T13:29:29.427Z,100.00
2022-10-13T13:31:02.904Z,100.00
2022-10-13T13:32:36.534Z,100.00
2022-10-13T13:34:09.740Z,100.00
2022-10-13T13:35:43.196Z,100.00
2022-10-13T13:37:36.181Z,100.00
2022-10-13T13:39:17.047Z,100.00
2022-10-13T13:40:50.590Z,100.00
2022-10-13T13:42:23.942Z,100.00
2022-10-13T13:43:58.460Z,100.00
2022-10-13T13:45:34.321Z,100.00
2022-10-13T13:47:20.867Z,100.00
2022-10-13T13:48:53.985Z,100.00
2022-10-13T13:50:33.428Z,100.00
2022-10-13T13:52:06.927Z,100.00
2022-10-13T13:53:40.753Z,100.00
2022-10-13T13:55:14.865Z,100.00
2022-10-13T13:56:48.382Z,100.00
2022-10-13T13:58:22.251Z,100.00
2022-10-13T13:59:55.964Z,100.00
2022-10-13T14:01:29.545Z,100.00
2022-10-13T14:03:03.243Z,100.00
2022-10-13T14:04:36.854Z,100.00
2022-10-13T14:06:17.064Z,100.00
2022-10-13T14:07:50.951Z,100.00
2022-10-13T14:09:24.606Z,100.00
2022-10-13T14:10:58.733Z,100.00
2022-10-13T14:12:33.431Z,100.00
2022-10-13T14:14:07.144Z,100.00
2022-10-13T14:15:40.564Z,100.00
2022-10-13T14:17:14.010Z,100.00
2022-10-13T14:18:47.167Z,100.00
2022-10-13T14:20:21.133Z,100.00
2022-10-13T14:21:54.757Z,100.00
2022-10-13T14:23:28.401Z,100.00
2022-10-13T14:25:02.357Z,100.00
2022-10-13T14:26:35.986Z,100.00
2022-10-13T14:28:09.398Z,100.00
2022-10-13T14:29:42.846Z,100.00
2022-10-13T14:31:16.622Z,100.00
2022-10-13T14:32:53.217Z,100.00
2022-10-13T14:34:26.764Z,100.00
2022-10-13T14:36:05.867Z,100.00
2022-10-13T14:37:40.001Z,100.00
2022-10-13T14:39:13.669Z,100.00
2022-10-13T14:40:47.118Z,100.00
2022-10-13T14:42:20.627Z,100.00
2022-10-13T14:43:55.073Z,100.00
2022-10-13T14:45:28.154Z,100.00
2022-10-13T14:47:01.557Z,100.00
2022-10-13T14:48:36.447Z,100.00
2022-10-13T14:50:11.185Z,100.00
2022-10-13T14:51:44.776Z,100.00
2022-10-13T14:53:18.841Z,100.00
2022-10-13T14:54:52.359Z,100.00
2022-10-13T14:56:30.082Z,100.00
2022-10-13T14:58:07.647Z,100.00
2022-10-13T14:59:40.992Z,100.00
2022-10-13T15:01:14.850Z,100.00
2022-10-13T15:02:48.356Z,100.00
2022-10-13T15:04:21.980Z,100.00
2022-10-13T15:05:55.434Z,100.00
2022-10-13T15:07:29.553Z,100.00
2022-10-13T15:09:03.391Z,100.00
2022-10-13T15:10:37.031Z,100.00
2022-10-13T15:12:11.347Z,100.00
2022-10-13T15:13:45.055Z,100.00
2022-10-13T15:15:18.774Z,100.00
2022-10-13T15:16:52.527Z,100.00
2022-10-13T15:18:29.352Z,100.00
2022-10-13T15:20:05.072Z,100.00
2022-10-13T15:21:39.054Z,100.00
2022-10-13T15:23:14.997Z,100.00
2022-10-13T15:24:48.611Z,100.00
2022-10-13T15:26:22.373Z,100.00
2022-10-13T15:27:55.987Z,100.00
2022-10-13T15:29:29.479Z,100.00
2022-10-13T15:31:03.376Z,100.00
2022-10-13T15:32:37.075Z,100.00
2022-10-13T15:34:10.663Z,100.00
2022-10-13T15:35:44.400Z,100.00
2022-10-13T15:37:18.295Z,100.00
2022-10-13T15:38:52.392Z,100.00
2022-10-13T15:40:28.759Z,100.00
2022-10-13T15:42:02.528Z,100.00
2022-10-13T15:43:36.466Z,100.00
2022-10-13T15:45:11.599Z,100.00
2022-10-13T15:46:59.413Z,100.00
2022-10-13T15:48:39.974Z,100.00
2022-10-13T15:50:13.149Z,100.00
2022-10-13T15:51:50.002Z,100.00
2022-10-13T15:53:26.504Z,100.00
2022-10-13T15:55:00.569Z,100.00
2022-10-13T15:56:34.342Z,100.00
2022-10-13T15:58:11.362Z,100.00
2022-10-13T15:59:47.369Z,100.00
2022-10-13T16:01:21.003Z,100.00
2022-10-13T16:02:55.007Z,100.00
2022-10-13T16:04:31.289Z,100.00
2022-10-13T16:06:09.732Z,100.00
2022-10-13T16:07:43.650Z,100.00
2022-10-13T16:09:16.950Z,100.00
2022-10-13T16:10:50.432Z,100.00
2022-10-13T16:12:31.134Z,100.00
2022-10-13T16:14:04.697Z,100.00
2022-10-13T16:15:38.462Z,100.00
2022-10-13T16:17:11.997Z,100.00
2022-10-13T16:18:46.617Z,100.00
2022-10-13T16:20:22.813Z,100.00
2022-10-13T16:21:58.193Z,100.00
2022-10-13T16:23:31.843Z,100.00
2022-10-13T16:25:05.566Z,100.00
2022-10-13T16:26:38.858Z,100.00
2022-10-13T16:28:12.498Z,100.00
2022-10-13T16:29:46.045Z,100.00
2022-10-13T16:31:19.362Z,100.00
2022-10-13T16:32:53.046Z,100.00
2022-10-13T16:34:27.225Z,100.00
2022-10-13T16:36:06.089Z,100.00
2022-10-13T16:37:39.454Z,100.00
2022-10-13T16:39:16.089Z,100.00
2022-10-13T16:40:49.497Z,100.00
2022-10-13T16:42:23.512Z,100.00
2022-10-13T16:43:57.240Z,100.00
2022-10-13T16:45:55.130Z,100.00
2022-10-13T16:47:27.701Z,100.00
2022-10-13T16:49:01.928Z,100.00
2022-10-13T16:50:38.182Z,100.00
2022-10-13T16:52:12.088Z,100.00
2022-10-13T16:53:50.067Z,100.00
2022-10-13T16:55:24.460Z,100.00
2022-10-13T16:57:01.351Z,100.00
2022-10-13T16:58:38.368Z,100.00
2022-10-13T17:00:12.987Z,100.00
2022-10-13T17:01:47.699Z,100.00
2022-10-13T17:03:21.463Z,100.00
2022-10-13T17:04:55.391Z,100.00
2022-10-13T17:06:29.730Z,100.00
2022-10-13T17:08:03.285Z,100.00
2022-10-13T17:09:37.111Z,100.00
2022-10-13T17:11:16.862Z,100.00
2022-10-13T17:12:51.690Z,100.00
2022-10-13T17:14:25.465Z,100.00
2022-10-13T17:15:59.941Z,100.00
2022-10-13T17:17:33.959Z,100.00
2022-10-13T17:19:09.534Z,100.00
2022-10-13T17:20:57.991Z,100.00
2022-10-13T17:22:31.834Z,100.00
2022-10-13T17:24:05.412Z,100.00
2022-10-13T17:25:39.906Z,100.00
2022-10-13T17:27:16.824Z,100.00
2022-10-13T17:28:50.476Z,100.00
2022-10-13T17:30:24.076Z,100.00
2022-10-13T17:31:57.646Z,100.00
2022-10-13T17:33:33.979Z,100.00
2022-10-13T17:35:10.859Z,100.00
2022-10-13T17:36:44.462Z,100.00
2022-10-13T17:38:20.586Z,100.00
2022-10-13T17:39:54.039Z,100.00
2022-10-13T17:41:28.035Z,100.00
2022-10-13T17:43:02.583Z,100.00
2022-10-13T17:44:35.837Z,100.00
2022-10-13T17:48:14.178Z,100.00
2022-10-13T17:49:47.856Z,100.00
2022-10-13T17:51:21.957Z,100.00
2022-10-13T17:52:55.536Z,100.00
2022-10-13T17:54:28.989Z,100.00
2022-10-13T17:56:08.359Z,100.00
2022-10-13T17:57:42.135Z,100.00
2022-10-13T17:59:18.004Z,100.00
2022-10-13T18:01:12.018Z,100.00
2022-10-13T18:02:45.201Z,100.00
2022-10-13T18:04:20.020Z,100.00
2022-10-13T18:05:55.452Z,100.00
2022-10-13T18:07:32.131Z,100.00
2022-10-13T18:09:11.154Z,100.00
2022-10-13T18:11:07.256Z,100.00
2022-10-13T18:12:38.675Z,100.00
2022-10-13T18:14:12.685Z,100.00
2022-10-13T18:15:49.699Z,100.00
2022-10-13T18:17:23.565Z,100.00
2022-10-13T18:18:57.475Z,100.00
2022-10-13T18:20:31.681Z,100.00
2022-10-13T18:22:05.210Z,100.00
2022-10-13T18:23:38.649Z,100.00
2022-10-13T18:25:12.501Z,100.00
2022-10-13T18:26:47.277Z,100.00
2022-10-13T18:28:20.988Z,100.00
2022-10-13T18:29:55.494Z,100.00
2022-10-13T18:31:32.669Z,100.00
2022-10-13T18:33:06.107Z,100.00
2022-10-13T18:34:39.626Z,100.00
2022-10-13T18:36:24.614Z,100.00
2022-10-13T18:37:58.202Z,100.00
2022-10-13T18:39:34.763Z,100.00
2022-10-13T18:41:08.172Z,100.00
2022-10-13T18:42:45.959Z,100.00
2022-10-13T18:44:21.406Z,100.00
2022-10-13T18:46:00.179Z,100.00
2022-10-13T18:47:33.835Z,100.00
2022-10-13T18:49:12.048Z,100.00
2022-10-13T18:50:48.290Z,100.00
2022-10-13T18:52:21.419Z,100.00
2022-10-13T18:53:54.883Z,100.00
2022-10-13T18:55:29.791Z,100.00
2022-10-13T18:57:03.756Z,100.00
2022-10-13T18:58:37.295Z,100.00
2022-10-13T19:00:12.080Z,100.00
2022-10-13T19:01:45.613Z,100.00
2022-10-13T19:03:19.690Z,100.00
2022-10-13T19:04:56.450Z,100.00
2022-10-13T19:06:32.434Z,100.00
2022-10-13T19:08:09.829Z,100.00
2022-10-13T19:09:43.574Z,100.00
2022-10-13T19:11:20.978Z,100.00
2022-10-13T19:12:57.266Z,100.00
2022-10-13T19:14:32.691Z,100.00
2022-10-13T19:16:07.042Z,100.00
2022-10-13T19:17:40.562Z,100.00
2022-10-13T19:19:14.431Z,100.00
2022-10-13T19:20:48.075Z,100.00
2022-10-13T19:22:21.495Z,100.00
2022-10-13T19:23:55.740Z,100.00
2022-10-13T19:25:30.206Z,100.00
2022-10-13T19:27:03.939Z,100.00
2022-10-13T19:28:37.815Z,100.00
2022-10-13T19:30:11.904Z,100.00
2022-10-13T19:31:47.971Z,100.00
2022-10-13T19:33:21.181Z,100.00
2022-10-13T19:34:54.911Z,100.00
2022-10-13T19:36:34.886Z,100.00
2022-10-13T19:38:08.404Z,100.00
2022-10-13T19:39:42.066Z,100.00
2022-10-13T19:41:16.156Z,100.00
2022-10-13T19:42:50.064Z,100.00
2022-10-13T19:44:25.496Z,100.00
2022-10-13T19:45:59.956Z,100.00
2022-10-13T19:47:36.611Z,100.00
2022-10-13T19:49:11.463Z,100.00
2022-10-13T19:50:50.678Z,100.00
2022-10-13T19:52:25.572Z,100.00
2022-10-13T19:54:02.141Z,100.00
2022-10-13T19:55:42.255Z,100.00
2022-10-13T19:57:15.778Z,100.00
2022-10-13T19:58:49.554Z,100.00
2022-10-13T20:00:23.295Z,100.00
2022-10-13T20:01:57.151Z,100.00
2022-10-13T20:03:31.199Z,100.00
2022-10-13T20:05:04.646Z,100.00
2022-10-13T20:06:39.198Z,100.00
2022-10-13T20:08:14.491Z,100.00
2022-10-13T20:09:47.987Z,100.00
2022-10-13T20:11:24.133Z,100.00
2022-10-13T20:12:58.428Z,100.00
2022-10-13T20:14:32.810Z,100.00
2022-10-13T20:16:13.979Z,100.00
2022-10-13T20:17:48.074Z,100.00
2022-10-13T20:19:21.689Z,100.00
2022-10-13T20:20:55.379Z,100.00
2022-10-13T20:22:29.115Z,100.00
2022-10-13T20:24:03.424Z,100.00
2022-10-13T20:25:38.469Z,100.00
2022-10-13T20:27:12.076Z,100.00
2022-10-13T20:28:47.596Z,100.00
2022-10-13T20:30:23.996Z,100.00
2022-10-13T20:32:01.666Z,100.00
2022-10-13T20:33:36.368Z,100.00
2022-10-13T20:35:10.137Z,100.00
2022-10-13T20:36:43.977Z,100.00
2022-10-13T20:38:18.685Z,100.00
2022-10-13T20:39:52.668Z,100.00
2022-10-13T20:41:29.272Z,100.00
2022-10-13T20:43:02.972Z,100.00